Terminal Aerodrome Forecast
Issued by NWS

Home | Current Version | Previous Version | Text Only | Print | Product List | Glossary On
Versions: 1 2 3 4 5 6 7 8 9 10 11 12 13 14 15 16 17 18 19
000
FTUS44 KLZK 011300 AAA
TAFLIT
TAF AMD
KLIT 011356Z 0114/0212 22006KT P6SM BKN015 OVC025
     FM011600 20008G16KT P6SM BKN025 OVC040
     FM011800 19010G18KT P6SM SCT040
     FM020000 15006KT P6SM SCT100=

USA.gov is the U.S. government's official web portal to all federal, state and local government web resources and services.